Time;durP1;ratioP1;P1;durP2;ratioP2;P2;SDS_P1;SDS_P2;PMS_P1;PMS_P2;Temp;Humidity;BMP_temperature;BMP_pressure;BME280_temperature;BME280_humidity;BME280_pressure;Samples;Min_cycle;Max_cycle;Signal;HPM_P1;HPM_P2
2022/05/21 00:02:11;;;;;;;7.40;6.80;;;17.50;99.90;;;;;;6031781;23;20551;-74
2022/05/21 00:04:41;;;;;;;6.57;5.80;;;17.50;99.90;;;;;;6033035;23;20440;-75
2022/05/21 00:07:10;;;;;;;6.20;5.70;;;17.40;99.90;;;;;;6033356;23;20469;-74
2022/05/21 00:09:37;;;;;;;6.73;6.23;;;17.30;99.90;;;;;;6024020;23;20510;-74
2022/05/21 00:12:05;;;;;;;6.47;5.17;;;17.30;99.90;;;;;;6034252;23;20440;-75
2022/05/21 00:14:34;;;;;;;5.40;4.87;;;17.30;99.90;;;;;;6032026;23;20451;-75
2022/05/21 00:17:02;;;;;;;5.20;4.80;;;17.30;99.90;;;;;;6033818;23;20470;-74
2022/05/21 00:19:30;;;;;;;5.37;4.97;;;17.30;99.90;;;;;;6031450;23;20546;-74
2022/05/21 00:21:56;;;;;;;4.83;4.43;;;17.30;99.90;;;;;;6026937;23;20496;-74
2022/05/21 00:24:23;;;;;;;4.17;3.87;;;17.30;99.90;;;;;;6033010;23;20524;-74
2022/05/21 00:26:50;;;;;;;4.60;4.17;;;17.30;99.90;;;;;;6028854;23;21010;-74
2022/05/21 00:29:20;;;;;;;4.20;3.90;;;17.30;99.90;;;;;;6030513;23;20432;-74
2022/05/21 00:31:47;;;;;;;4.50;4.10;;;17.20;99.90;;;;;;6034219;23;20528;-74
2022/05/21 00:34:15;;;;;;;4.93;4.63;;;17.20;99.90;;;;;;6031346;23;20504;-74
2022/05/21 00:36:42;;;;;;;4.90;4.57;;;17.20;99.90;;;;;;6022967;23;21037;-74
2022/05/21 00:39:09;;;;;;;5.93;5.33;;;17.20;99.90;;;;;;6034092;23;20467;-74
2022/05/21 00:41:38;;;;;;;5.57;5.17;;;17.10;99.90;;;;;;6031568;23;20448;-74
2022/05/21 00:44:07;;;;;;;5.87;5.37;;;17.00;99.90;;;;;;6026322;23;20673;-74
2022/05/21 00:46:36;;;;;;;6.07;5.57;;;17.00;99.90;;;;;;6032679;23;20558;-74
2022/05/21 00:49:07;;;;;;;5.47;5.07;;;17.00;99.90;;;;;;6029937;23;20511;-74
2022/05/21 00:51:42;;;;;;;7.23;5.70;;;16.90;99.90;;;;;;6033924;23;20444;-74
2022/05/21 00:54:13;;;;;;;5.60;5.10;;;16.90;99.90;;;;;;6032682;23;20447;-75
2022/05/21 00:56:43;;;;;;;6.40;5.80;;;16.90;99.90;;;;;;6031197;23;20843;-74
2022/05/21 01:02:00;;;;;;;6.30;5.80;;;16.80;99.90;;;;;;6032594;23;20464;-74
2022/05/21 01:04:27;;;;;;;6.40;5.90;;;16.70;99.90;;;;;;6033838;23;20468;-74
2022/05/21 01:06:57;;;;;;;6.53;6.03;;;16.70;99.90;;;;;;6033174;23;20460;-74
2022/05/21 01:09:24;;;;;;;6.77;6.30;;;16.70;99.90;;;;;;6033388;23;20441;-74
2022/05/21 01:11:51;;;;;;;6.80;6.30;;;16.60;99.90;;;;;;6033379;23;20795;-74
2022/05/21 01:14:20;;;;;;;6.67;6.07;;;16.70;99.90;;;;;;6029817;23;20498;-74
2022/05/21 01:16:48;;;;;;;6.43;5.97;;;16.60;99.90;;;;;;6031611;23;20477;-74
2022/05/21 01:19:15;;;;;;;6.00;5.60;;;16.60;99.90;;;;;;6033138;23;20531;-74
2022/05/21 01:21:43;;;;;;;6.53;6.03;;;16.50;99.90;;;;;;6032561;23;20451;-74
2022/05/21 01:24:12;;;;;;;6.80;5.77;;;16.60;99.90;;;;;;6023126;23;20463;-75
2022/05/21 01:26:41;;;;;;;5.80;5.40;;;16.50;99.90;;;;;;6033002;23;20870;-74
2022/05/21 01:29:13;;;;;;;6.70;5.60;;;16.50;99.90;;;;;;6032870;23;20471;-73
2022/05/21 01:31:49;;;;;;;5.60;5.03;;;16.50;99.90;;;;;;6027457;23;20451;-74
2022/05/21 01:34:16;;;;;;;7.43;5.37;;;16.50;99.90;;;;;;6032364;23;20506;-74
2022/05/21 01:36:43;;;;;;;5.60;5.10;;;16.50;99.90;;;;;;6032788;23;20824;-74
2022/05/21 01:39:11;;;;;;;5.87;5.37;;;16.40;99.90;;;;;;6032292;23;20999;-74
2022/05/21 01:41:38;;;;;;;6.17;5.57;;;16.30;99.90;;;;;;6033546;23;20454;-74
2022/05/21 01:46:49;;;;;;;6.23;5.10;;;16.10;99.90;;;;;;6022273;23;20499;-74
2022/05/21 01:49:16;;;;;;;5.50;5.20;;;16.00;99.90;;;;;;6032135;23;20454;-74
2022/05/21 01:51:43;;;;;;;6.10;5.60;;;16.00;99.90;;;;;;6031253;23;20985;-74
2022/05/21 01:54:11;;;;;;;6.30;5.90;;;15.90;99.90;;;;;;6033038;23;20979;-74
2022/05/21 01:56:39;;;;;;;7.30;6.70;;;15.80;99.90;;;;;;6033022;23;20544;-75
2022/05/21 01:59:05;;;;;;;6.70;6.20;;;15.70;99.90;;;;;;6032264;23;20796;-73
2022/05/21 02:01:32;;;;;;;6.67;6.03;;;15.70;99.90;;;;;;6033262;23;20575;-73
2022/05/21 02:03:59;;;;;;;7.20;6.70;;;15.60;99.90;;;;;;6030254;23;20508;-73
2022/05/21 02:06:28;;;;;;;6.07;5.43;;;15.60;99.90;;;;;;6028415;23;20464;-74
2022/05/21 02:08:54;;;;;;;6.67;5.63;;;15.50;99.90;;;;;;6032691;23;20447;-74
2022/05/21 02:11:23;;;;;;;6.27;5.87;;;15.40;99.90;;;;;;6033380;23;20890;-73
2022/05/21 02:13:50;;;;;;;6.47;5.97;;;15.40;99.90;;;;;;6032145;23;20492;-73
2022/05/21 02:16:16;;;;;;;6.33;5.83;;;15.30;99.90;;;;;;6021695;23;20479;-73
2022/05/21 02:18:44;;;;;;;6.43;5.93;;;15.20;99.90;;;;;;6031491;23;20471;-73
2022/05/21 02:21:11;;;;;;;5.63;5.23;;;15.10;99.90;;;;;;6031172;23;20440;-73
2022/05/21 02:23:37;;;;;;;6.33;5.83;;;15.10;99.90;;;;;;6032762;23;20471;-73
2022/05/21 02:26:05;;;;;;;6.30;5.43;;;15.00;99.90;;;;;;6032354;23;20468;-73
2022/05/21 02:28:33;;;;;;;6.23;5.73;;;15.00;99.90;;;;;;6033560;23;20440;-73
2022/05/21 02:31:00;;;;;;;5.60;5.13;;;14.90;99.90;;;;;;6027641;23;20528;-73
2022/05/21 02:33:27;;;;;;;6.37;5.87;;;14.90;99.90;;;;;;6029979;23;20444;-73
2022/05/21 02:35:54;;;;;;;7.20;6.50;;;14.80;99.90;;;;;;6032659;23;20995;-73
2022/05/21 02:41:10;;;;;;;5.80;5.40;;;14.70;99.90;;;;;;6032891;23;20931;-73
2022/05/21 02:43:39;;;;;;;6.90;6.20;;;14.70;99.90;;;;;;6032792;23;20468;-73
2022/05/21 02:46:06;;;;;;;6.53;5.80;;;14.70;99.90;;;;;;6031678;23;20460;-73
2022/05/21 02:48:33;;;;;;;6.50;6.00;;;14.60;99.90;;;;;;6032086;23;20443;-73
2022/05/21 02:51:00;;;;;;;6.07;5.57;;;14.60;99.90;;;;;;6033085;23;20899;-73
2022/05/21 02:53:27;;;;;;;6.10;5.60;;;14.50;99.90;;;;;;6032989;23;21015;-73
2022/05/21 02:55:55;;;;;;;6.00;5.60;;;14.50;99.90;;;;;;6028326;23;20555;-73
2022/05/21 02:58:23;;;;;;;6.60;6.10;;;14.50;99.90;;;;;;6023791;23;20457;-73
2022/05/21 03:00:52;;;;;;;6.40;5.90;;;14.40;99.90;;;;;;6028640;23;20443;-73
2022/05/21 03:03:19;;;;;;;7.00;6.40;;;14.40;99.90;;;;;;6024811;23;20491;-73
2022/05/21 03:05:46;;;;;;;6.17;5.67;;;14.30;99.90;;;;;;6033695;23;20472;-72
2022/05/21 03:11:03;;;;;;;6.47;5.97;;;14.20;99.90;;;;;;5978955;23;20187;-73
2022/05/21 03:13:34;;;;;;;6.63;6.03;;;14.20;99.90;;;;;;6034369;23;20510;-72
2022/05/21 03:16:02;;;;;;;6.20;5.80;;;14.10;99.90;;;;;;6017693;23;20504;-73
2022/05/21 03:18:29;;;;;;;6.80;6.22;;;14.10;99.90;;;;;;6034613;23;20447;-73
2022/05/21 03:20:56;;;;;;;7.33;6.73;;;14.00;99.90;;;;;;6034305;23;20189;-73
2022/05/21 03:23:23;;;;;;;7.93;7.30;;;14.00;99.90;;;;;;6031847;23;20475;-73
2022/05/21 03:25:50;;;;;;;7.90;7.30;;;14.00;99.90;;;;;;6033544;23;20467;-73
2022/05/21 03:28:19;;;;;;;8.27;7.63;;;13.90;99.90;;;;;;6033348;23;20443;-73
2022/05/21 03:30:46;;;;;;;7.88;7.18;;;13.80;99.90;;;;;;6032731;23;20440;-73
2022/05/21 03:33:15;;;;;;;7.63;7.03;;;13.80;99.90;;;;;;6034371;23;20213;-73
2022/05/21 03:35:42;;;;;;;7.73;7.03;;;13.70;99.90;;;;;;6031743;23;20206;-72
2022/05/21 03:38:09;;;;;;;8.15;7.35;;;13.70;99.90;;;;;;6032974;23;20527;-73
2022/05/21 03:40:37;;;;;;;7.18;6.50;;;13.70;99.90;;;;;;6033511;23;20201;-73
2022/05/21 03:43:04;;;;;;;7.65;7.00;;;13.60;99.90;;;;;;6031531;23;20221;-73
2022/05/21 03:45:31;;;;;;;7.43;6.82;;;13.60;99.90;;;;;;6032792;23;20236;-73
2022/05/21 03:47:58;;;;;;;7.65;6.95;;;13.60;99.90;;;;;;6033810;23;20637;-73
2022/05/21 03:50:31;;;;;;;7.82;7.30;;;13.60;99.90;;;;;;6034045;23;20186;-73
2022/05/21 03:52:58;;;;;;;8.38;7.70;;;13.60;99.90;;;;;;6033282;23;20195;-73
2022/05/21 03:55:25;;;;;;;8.35;7.63;;;13.50;99.90;;;;;;6033653;23;20215;-73
2022/05/21 03:57:52;;;;;;;7.82;7.30;;;13.50;99.90;;;;;;6031226;23;20653;-73
2022/05/21 04:00:21;;;;;;;7.80;7.20;;;13.50;99.90;;;;;;6030854;23;20196;-73
2022/05/21 04:02:48;;;;;;;9.23;8.33;;;13.50;99.90;;;;;;6031008;23;20219;-73
2022/05/21 04:05:16;;;;;;;10.25;9.38;;;13.50;99.90;;;;;;6033519;23;20498;-73
2022/05/21 04:07:44;;;;;;;10.02;9.23;;;13.50;99.90;;;;;;6033393;23;20229;-73
2022/05/21 04:10:14;;;;;;;10.57;9.63;;;13.50;99.90;;;;;;6031007;23;20192;-73
2022/05/21 04:12:42;;;;;;;11.65;10.75;;;13.50;99.90;;;;;;6026909;23;20448;-73
2022/05/21 04:15:10;;;;;;;11.18;10.27;;;13.50;99.90;;;;;;6033204;23;20200;-73
2022/05/21 04:17:38;;;;;;;11.27;10.48;;;13.50;99.90;;;;;;6033604;23;20193;-73
2022/05/21 04:20:08;;;;;;;11.82;10.85;;;13.50;99.90;;;;;;6033091;23;20275;-73
2022/05/21 04:22:36;;;;;;;10.68;9.88;;;13.50;99.90;;;;;;6033452;23;20272;-73
2022/05/21 04:25:06;;;;;;;11.43;10.63;;;13.50;99.90;;;;;;6037075;22;20676;-75
2022/05/21 04:27:34;;;;;;;12.32;11.38;;;13.50;99.90;;;;;;6060258;23;20193;-75
2022/05/21 04:30:01;;;;;;;11.93;11.02;;;13.50;99.90;;;;;;6073385;23;20251;-75
2022/05/21 04:32:28;;;;;;;12.15;11.15;;;13.50;99.90;;;;;;6074499;23;20251;-75
2022/05/21 04:34:55;;;;;;;12.02;11.00;;;13.50;99.90;;;;;;6069843;23;20271;-75
2022/05/21 04:37:22;;;;;;;11.68;10.70;;;13.50;99.90;;;;;;6049059;23;20567;-75
2022/05/21 04:39:49;;;;;;;11.15;10.25;;;13.50;99.90;;;;;;6038078;23;20311;-75
2022/05/21 04:42:17;;;;;;;11.10;10.18;;;13.50;99.90;;;;;;6057021;23;20250;-75
2022/05/21 04:44:45;;;;;;;11.40;10.50;;;13.50;99.90;;;;;;6043898;23;20217;-75
2022/05/21 04:47:12;;;;;;;10.48;9.65;;;13.50;99.90;;;;;;6041420;23;20193;-75
2022/05/21 04:49:39;;;;;;;10.05;9.20;;;13.60;99.90;;;;;;6041560;23;20197;-75
2022/05/21 04:52:07;;;;;;;9.90;9.20;;;13.60;99.90;;;;;;6046075;23;20252;-75
2022/05/21 04:54:36;;;;;;;9.50;8.77;;;13.60;99.90;;;;;;6042588;23;20217;-75
2022/05/21 04:57:03;;;;;;;9.23;8.53;;;13.70;99.90;;;;;;6057227;23;20212;-75
2022/05/21 04:59:31;;;;;;;8.90;8.20;;;13.70;99.90;;;;;;6044224;23;20444;-75
2022/05/21 05:01:58;;;;;;;8.52;7.72;;;13.70;99.90;;;;;;6036034;23;20267;-75
2022/05/21 05:04:25;;;;;;;9.50;8.63;;;13.80;99.90;;;;;;6051060;23;20556;-75
2022/05/21 05:06:52;;;;;;;8.70;7.90;;;13.80;99.90;;;;;;6038463;23;20573;-75
2022/05/21 05:09:22;;;;;;;9.17;8.47;;;13.80;99.90;;;;;;6046472;23;20526;-75
2022/05/21 05:11:51;;;;;;;9.00;8.20;;;13.90;99.90;;;;;;6052945;23;20851;-75
2022/05/21 05:14:18;;;;;;;8.40;7.60;;;13.80;99.90;;;;;;6031806;23;20656;-76
2022/05/21 05:16:46;;;;;;;9.52;8.75;;;13.90;99.90;;;;;;6045553;23;21005;-75
2022/05/21 05:19:13;;;;;;;8.30;7.70;;;13.90;99.90;;;;;;6052453;23;20709;-75
2022/05/21 05:21:40;;;;;;;9.27;8.50;;;13.90;99.90;;;;;;6049854;23;20539;-75
2022/05/21 05:24:07;;;;;;;9.65;8.95;;;13.90;99.90;;;;;;6034522;23;20514;-75
2022/05/21 05:26:34;;;;;;;9.10;8.30;;;14.00;99.90;;;;;;6054833;23;20240;-75
2022/05/21 05:29:01;;;;;;;8.83;8.13;;;14.00;99.90;;;;;;6045848;23;20530;-75
2022/05/21 05:31:28;;;;;;;8.73;8.10;;;14.10;99.90;;;;;;6039187;23;20439;-75
2022/05/21 05:33:57;;;;;;;10.38;8.98;;;14.10;99.90;;;;;;6052199;23;21008;-77
2022/05/21 05:36:24;;;;;;;9.23;8.30;;;14.20;99.90;;;;;;6048607;23;20213;-75
2022/05/21 05:38:51;;;;;;;8.37;7.67;;;14.20;99.90;;;;;;6050140;23;20448;-75
2022/05/21 05:41:18;;;;;;;7.80;7.25;;;14.20;99.90;;;;;;6044168;23;20435;-75
2022/05/21 05:43:44;;;;;;;7.55;6.85;;;14.30;99.90;;;;;;6043818;23;20350;-75
2022/05/21 05:46:11;;;;;;;8.17;7.47;;;14.30;99.90;;;;;;6047428;23;20794;-76
2022/05/21 05:48:38;;;;;;;7.67;7.17;;;14.40;99.90;;;;;;6038678;23;20442;-75
2022/05/21 05:51:07;;;;;;;7.78;7.15;;;14.50;99.90;;;;;;6049943;23;20470;-75
2022/05/21 05:53:34;;;;;;;7.90;7.40;;;14.50;99.90;;;;;;6045942;23;20203;-75
2022/05/21 05:56:01;;;;;;;8.15;7.35;;;14.50;99.90;;;;;;6045740;23;20209;-75
2022/05/21 06:01:13;;;;;;;7.50;6.90;;;14.50;99.90;;;;;;6047212;23;20459;-75
2022/05/21 06:03:42;;;;;;;7.63;7.00;;;14.60;99.90;;;;;;6046280;23;20468;-75
2022/05/21 06:06:10;;;;;;;7.27;6.77;;;14.70;99.90;;;;;;6051377;23;20460;-76
2022/05/21 06:08:37;;;;;;;7.00;6.40;;;14.70;99.90;;;;;;6037332;23;20984;-76
2022/05/21 06:11:04;;;;;;;6.80;6.30;;;14.80;99.90;;;;;;6049748;23;20823;-77
2022/05/21 06:13:31;;;;;;;5.90;5.40;;;14.90;99.90;;;;;;6055107;23;20467;-77
2022/05/21 06:15:59;;;;;;;5.83;5.43;;;15.00;99.90;;;;;;6039284;23;20526;-76
2022/05/21 06:18:27;;;;;;;6.53;5.83;;;15.00;99.90;;;;;;6050290;23;20444;-77
2022/05/21 06:20:54;;;;;;;5.80;5.30;;;15.10;99.90;;;;;;6052906;23;20501;-76
2022/05/21 06:23:22;;;;;;;5.30;4.90;;;15.20;99.90;;;;;;6040897;23;20819;-77
2022/05/21 06:25:49;;;;;;;5.07;4.57;;;15.30;99.90;;;;;;6042494;23;20478;-77
2022/05/21 06:28:16;;;;;;;4.20;3.93;;;15.30;99.90;;;;;;6038541;23;20440;-76
2022/05/21 06:30:45;;;;;;;4.63;3.40;;;15.30;99.90;;;;;;6045500;23;20462;-76
2022/05/21 06:33:15;;;;;;;5.10;4.50;;;15.40;99.90;;;;;;6045799;23;20458;-76
2022/05/21 06:35:42;;;;;;;3.43;3.23;;;15.50;99.90;;;;;;6039488;23;20452;-77
2022/05/21 06:38:09;;;;;;;4.07;3.50;;;15.60;99.90;;;;;;6050631;23;20456;-76
2022/05/21 06:40:38;;;;;;;4.00;3.70;;;15.80;99.90;;;;;;6057380;23;20514;-76
2022/05/21 06:43:05;;;;;;;3.50;3.30;;;15.90;99.90;;;;;;6048670;23;20467;-77
2022/05/21 06:45:34;;;;;;;4.10;3.63;;;16.00;99.90;;;;;;6046774;23;20476;-76
2022/05/21 06:48:02;;;;;;;3.50;3.20;;;16.20;99.90;;;;;;6047824;23;20545;-77
2022/05/21 06:50:29;;;;;;;3.53;3.23;;;16.20;99.90;;;;;;6041663;23;20444;-76
2022/05/21 06:52:56;;;;;;;3.33;2.43;;;16.10;99.90;;;;;;6046731;23;20432;-76
2022/05/21 06:55:23;;;;;;;3.23;2.50;;;16.00;99.90;;;;;;6046666;23;20471;-76
2022/05/21 06:57:52;;;;;;;2.70;2.50;;;16.10;99.90;;;;;;6039152;23;20479;-76
2022/05/21 07:00:22;;;;;;;3.03;2.70;;;16.20;99.90;;;;;;6034976;23;20436;-77
2022/05/21 07:02:49;;;;;;;4.70;4.30;;;16.50;99.90;;;;;;6044857;23;20519;-77
2022/05/21 07:08:02;;;;;;;4.03;2.73;;;16.90;99.90;;;;;;6045765;23;20428;-77
2022/05/21 07:10:29;;;;;;;3.00;2.60;;;17.10;99.90;;;;;;6042877;23;20466;-77
2022/05/21 07:12:59;;;;;;;2.80;2.60;;;17.20;99.90;;;;;;6043064;23;20537;-76
2022/05/21 07:15:26;;;;;;;2.57;2.37;;;17.20;99.90;;;;;;6035812;23;20466;-76
2022/05/21 07:18:00;;;;;;;3.30;2.30;;;17.00;99.90;;;;;;6047590;23;20467;-77
2022/05/21 07:20:28;;;;;;;4.40;2.20;;;16.90;99.90;;;;;;6044799;23;20444;-77
2022/05/21 07:22:55;;;;;;;2.37;1.50;;;17.10;99.90;;;;;;6043825;23;20471;-77
2022/05/21 07:25:25;;;;;;;1.83;1.40;;;17.30;99.90;;;;;;6055643;23;20561;-77
2022/05/21 07:27:53;;;;;;;2.30;1.40;;;17.70;99.90;;;;;;6043003;23;20431;-77
2022/05/21 07:30:21;;;;;;;3.77;1.70;;;18.20;99.90;;;;;;6043060;23;20783;-77
2022/05/21 07:32:50;;;;;;;2.03;1.40;;;18.60;99.90;;;;;;6050596;23;20999;-76
2022/05/21 07:35:19;;;;;;;3.00;1.77;;;19.10;99.90;;;;;;6046866;23;20467;-77
2022/05/21 07:37:47;;;;;;;1.50;1.17;;;19.50;99.90;;;;;;6052240;23;20453;-77
2022/05/21 07:40:15;;;;;;;1.70;1.00;;;20.20;99.90;;;;;;6051328;23;20448;-78
2022/05/21 07:42:43;;;;;;;2.83;1.40;;;20.80;99.90;;;;;;6043102;23;20440;-77
2022/05/21 07:45:12;;;;;;;1.63;1.53;;;21.30;99.90;;;;;;6054071;23;20471;-77
2022/05/21 07:47:41;;;;;;;2.73;1.40;;;21.70;99.90;;;;;;6030915;23;20436;-77
2022/05/21 07:50:09;;;;;;;1.83;1.13;;;21.90;99.20;;;;;;6049011;23;20475;-77
2022/05/21 07:52:37;;;;;;;2.30;1.13;;;22.40;97.20;;;;;;6046481;23;20444;-77
2022/05/21 07:55:05;;;;;;;1.50;1.20;;;22.80;96.80;;;;;;6043906;23;20490;-77
2022/05/21 07:57:32;;;;;;;1.93;1.30;;;22.80;95.30;;;;;;6047343;23;20806;-77
2022/05/21 07:59:58;;;;;;;2.73;1.90;;;22.90;95.40;;;;;;6060621;23;20490;-76
2022/05/21 08:02:26;;;;;;;1.50;1.20;;;23.20;95.00;;;;;;6049027;23;20446;-76
2022/05/21 08:04:54;;;;;;;1.10;1.00;;;23.40;94.40;;;;;;6051175;23;20827;-77
2022/05/21 08:07:21;;;;;;;1.77;1.37;;;23.70;93.20;;;;;;6054310;23;20440;-77
2022/05/21 08:09:48;;;;;;;3.53;2.20;;;23.80;92.60;;;;;;6039604;23;20447;-78
2022/05/21 08:12:18;;;;;;;1.17;1.07;;;23.60;91.60;;;;;;6043828;23;20448;-77
2022/05/21 08:14:45;;;;;;;1.90;1.40;;;23.30;92.20;;;;;;6045214;23;20468;-78
2022/05/21 08:17:12;;;;;;;2.03;1.37;;;23.30;92.30;;;;;;6050410;23;20850;-79
2022/05/21 08:19:40;;;;;;;1.23;1.00;;;23.50;92.10;;;;;;6054798;23;20518;-78
2022/05/21 08:27:37;;;;;;;2.47;1.70;;;23.90;91.10;;;;;;6043889;23;20443;-77
2022/05/21 08:30:06;;;;;;;1.87;1.40;;;24.00;90.40;;;;;;6045175;23;20871;-77
2022/05/21 08:32:33;;;;;;;1.47;1.23;;;23.70;90.90;;;;;;6057631;23;20443;-77
2022/05/21 08:35:03;;;;;;;2.37;2.17;;;23.80;91.40;;;;;;6034558;23;20495;-77
2022/05/21 08:37:33;;;;;;;1.47;1.37;;;24.00;91.20;;;;;;6044516;23;20536;-77
2022/05/21 08:40:01;;;;;;;1.30;1.20;;;23.60;90.40;;;;;;6056182;23;20437;-77
2022/05/21 08:42:33;;;;;;;1.57;1.20;;;23.20;92.30;;;;;;6044987;23;20461;-78
2022/05/21 08:45:15;;;;;;;2.10;1.83;;;23.60;92.10;;;;;;6045949;23;20463;-77
2022/05/21 08:47:42;;;;;;;2.13;1.20;;;24.10;91.10;;;;;;6042699;23;20465;-76
2022/05/21 08:50:13;;;;;;;1.90;1.20;;;24.50;90.20;;;;;;6039705;23;20439;-76
2022/05/21 08:52:46;;;;;;;3.10;1.10;;;24.80;88.40;;;;;;6051053;23;20448;-77
2022/05/21 08:55:18;;;;;;;1.60;1.20;;;25.40;88.80;;;;;;6038434;23;21014;-77
2022/05/21 08:57:48;;;;;;;3.60;1.50;;;26.00;87.80;;;;;;6043947;23;20482;-76
2022/05/21 09:00:20;;;;;;;1.20;1.10;;;26.30;85.60;;;;;;6044195;23;21010;-76
2022/05/21 09:02:47;;;;;;;1.53;1.17;;;26.50;84.50;;;;;;6050722;23;20858;-76
2022/05/21 09:05:18;;;;;;;1.77;1.20;;;26.60;83.80;;;;;;6042298;23;20476;-76
2022/05/21 09:07:54;;;;;;;2.90;1.20;;;26.70;83.20;;;;;;6056650;23;20514;-76
2022/05/21 09:10:34;;;;;;;2.37;1.40;;;27.00;81.80;;;;;;6042382;23;20834;-77
2022/05/21 09:13:11;;;;;;;1.90;1.40;;;26.90;79.80;;;;;;6042212;23;20531;-77
2022/05/21 09:18:29;;;;;;;1.93;1.30;;;25.70;84.30;;;;;;6044576;23;20493;-77
2022/05/21 09:20:59;;;;;;;2.37;1.47;;;25.90;83.60;;;;;;6039930;23;20436;-77
2022/05/21 09:23:47;;;;;;;2.77;1.10;;;26.20;81.80;;;;;;6046000;23;20428;-77
2022/05/21 09:26:14;;;;;;;2.40;1.20;;;26.60;81.80;;;;;;6049533;23;20493;-77
2022/05/21 09:28:41;;;;;;;1.60;1.30;;;27.00;80.60;;;;;;6054917;23;20514;-77
2022/05/21 09:31:10;;;;;;;1.57;1.00;;;27.00;79.20;;;;;;6048337;23;20995;-77
2022/05/21 09:33:40;;;;;;;2.37;1.10;;;27.50;78.00;;;;;;6052612;23;20466;-77
2022/05/21 09:36:14;;;;;;;2.50;1.30;;;27.40;77.70;;;;;;6052509;23;20517;-77
2022/05/21 09:38:52;;;;;;;1.13;1.00;;;27.40;76.20;;;;;;6056405;23;20529;-76
2022/05/21 09:41:21;;;;;;;1.50;1.17;;;27.30;77.70;;;;;;6046341;23;20510;-76
2022/05/21 09:46:37;;;;;;;2.60;1.10;;;27.30;75.90;;;;;;6034039;23;20562;-78
2022/05/21 09:49:24;;;;;;;1.23;1.03;;;27.50;76.90;;;;;;6042804;23;20958;-77
2022/05/21 09:51:57;;;;;;;1.57;1.03;;;27.70;72.70;;;;;;6053830;23;20459;-76
2022/05/21 09:54:28;;;;;;;2.90;1.40;;;27.30;75.70;;;;;;6040319;23;20486;-76
2022/05/21 09:56:57;;;;;;;1.33;1.07;;;27.60;73.80;;;;;;6050798;23;20439;-77
2022/05/21 09:59:28;;;;;;;1.43;1.10;;;27.60;74.70;;;;;;6043491;23;21010;-76
2022/05/21 10:01:58;;;;;;;2.40;1.30;;;27.60;72.70;;;;;;6049180;23;20527;-76
2022/05/21 10:04:31;;;;;;;2.30;1.30;;;28.00;72.80;;;;;;6050197;23;21030;-77
2022/05/21 10:07:04;;;;;;;1.20;1.10;;;28.30;72.40;;;;;;6050782;23;20485;-77
2022/05/21 10:12:29;;;;;;;1.30;1.10;;;27.90;69.70;;;;;;6035992;23;20518;-78
2022/05/21 10:15:04;;;;;;;1.43;1.30;;;28.00;72.70;;;;;;6045373;23;20534;-76
2022/05/21 10:17:36;;;;;;;1.33;1.00;;;28.30;71.90;;;;;;6058920;23;20446;-77
2022/05/21 10:20:14;;;;;;;1.50;1.20;;;28.10;70.20;;;;;;6059357;23;20475;-77
2022/05/21 10:22:50;;;;;;;1.47;1.13;;;27.40;72.60;;;;;;6047989;23;20435;-77
2022/05/21 10:25:20;;;;;;;1.97;1.00;;;27.40;73.70;;;;;;6048560;23;20529;-77
2022/05/21 10:28:24;;;;;;;1.30;1.13;;;27.20;71.40;;;;;;6060410;22;20459;-82
2022/05/21 10:31:15;;;;;;;1.83;1.20;;;27.60;71.50;;;;;;6078362;23;20450;-82
2022/05/21 10:33:55;;;;;;;1.70;1.00;;;28.10;71.30;;;;;;6090369;23;20467;-82
2022/05/21 10:36:34;;;;;;;1.83;1.70;;;28.10;68.60;;;;;;6051921;23;20483;-82
2022/05/21 10:39:16;;;;;;;1.00;0.90;;;28.20;68.30;;;;;;6055586;23;20639;-82
2022/05/21 10:42:03;;;;;;;1.17;0.97;;;28.50;66.50;;;;;;6045234;23;20514;-82
2022/05/21 10:44:41;;;;;;;1.27;1.17;;;28.40;66.60;;;;;;6047979;23;20462;-83
2022/05/21 10:47:23;;;;;;;2.40;1.33;;;28.70;69.30;;;;;;6049348;23;20478;-83
2022/05/21 10:50:19;;;;;;;1.50;1.00;;;29.30;66.90;;;;;;6042451;23;20510;-83
2022/05/21 10:53:19;;;;;;;2.27;1.10;;;28.60;63.20;;;;;;6041233;23;20513;-83
2022/05/21 10:56:00;;;;;;;1.93;1.40;;;27.90;66.60;;;;;;6039006;23;20554;-83
2022/05/21 10:58:47;;;;;;;1.10;0.90;;;27.70;68.80;;;;;;6060676;23;20436;-83
2022/05/21 11:01:16;;;;;;;2.33;1.00;;;28.10;68.60;;;;;;6048654;23;20559;-83
2022/05/21 11:04:01;;;;;;;1.50;1.10;;;28.90;69.10;;;;;;6060280;23;20516;-83
2022/05/21 11:06:56;;;;;;;2.10;1.30;;;29.30;65.30;;;;;;6060331;23;20546;-83
2022/05/21 11:09:31;;;;;;;1.90;1.20;;;29.40;64.00;;;;;;6055061;23;20483;-83
2022/05/21 11:12:04;;;;;;;2.63;0.90;;;29.30;64.10;;;;;;6049705;23;20435;-83
2022/05/21 11:14:41;;;;;;;2.90;1.20;;;29.30;62.50;;;;;;6060224;23;20459;-83
2022/05/21 11:17:23;;;;;;;2.03;1.10;;;29.50;63.20;;;;;;6040447;23;20450;-83
2022/05/21 11:19:57;;;;;;;2.87;1.20;;;29.40;61.90;;;;;;6059800;23;20447;-83
2022/05/21 11:22:26;;;;;;;2.00;1.10;;;29.30;62.30;;;;;;6060597;23;20918;-83
2022/05/21 11:25:01;;;;;;;1.43;1.10;;;29.30;63.30;;;;;;6036641;23;20455;-83
2022/05/21 11:27:34;;;;;;;1.33;1.13;;;29.30;61.10;;;;;;6050318;23;20457;-82
2022/05/21 11:30:08;;;;;;;1.43;1.20;;;29.20;61.30;;;;;;6061279;23;20814;-83
2022/05/21 11:38:19;;;;;;;4.60;1.10;;;28.40;61.40;;;;;;6062431;23;20853;-83
2022/05/21 11:41:24;;;;;;;1.57;1.10;;;28.10;59.70;;;;;;6059542;23;20510;-83
2022/05/21 11:47:39;;;;;;;3.07;1.37;;;27.50;62.10;;;;;;6021696;23;20815;-83
2022/05/21 11:50:25;;;;;;;2.83;1.10;;;27.70;64.00;;;;;;6024354;23;20449;-83
2022/05/21 11:53:30;;;;;;;1.53;1.10;;;27.60;64.20;;;;;;6061859;23;20514;-83
2022/05/21 11:56:04;;;;;;;1.10;1.00;;;27.80;64.40;;;;;;6060669;23;20462;-83
2022/05/21 11:59:18;;;;;;;2.97;1.30;;;27.50;62.70;;;;;;6040155;23;20440;-83
2022/05/21 12:02:18;;;;;;;1.67;1.00;;;27.50;65.40;;;;;;6055270;23;20584;-83
2022/05/21 12:04:54;;;;;;;2.00;1.10;;;27.60;64.60;;;;;;6061586;23;20470;-83
2022/05/21 12:07:50;;;;;;;2.90;1.30;;;27.90;64.20;;;;;;6043431;23;20471;-83
2022/05/21 12:10:23;;;;;;;1.70;1.30;;;28.10;64.10;;;;;;6050340;23;20454;-83
2022/05/21 12:13:01;;;;;;;1.40;1.10;;;28.30;64.20;;;;;;6049694;23;20424;-83
2022/05/21 12:15:35;;;;;;;3.40;1.80;;;28.30;63.70;;;;;;6038300;23;20463;-82
2022/05/21 12:18:06;;;;;;;2.10;0.97;;;28.30;63.80;;;;;;6052196;23;20541;-82
2022/05/21 12:20:43;;;;;;;2.47;1.37;;;27.70;61.60;;;;;;6053866;23;20999;-82
2022/05/21 12:23:15;;;;;;;3.50;1.37;;;27.70;64.00;;;;;;6063628;23;20496;-82
2022/05/21 12:25:58;;;;;;;1.57;1.40;;;28.20;63.00;;;;;;6053686;23;20914;-83
2022/05/21 12:28:47;;;;;;;1.90;1.27;;;28.60;62.80;;;;;;6057701;23;20442;-83
2022/05/21 12:31:22;;;;;;;1.77;1.20;;;29.10;62.30;;;;;;6030698;23;20554;-83
2022/05/21 12:34:41;;;;;;;1.50;1.20;;;29.40;60.60;;;;;;6052802;23;20544;-83
2022/05/21 12:37:12;;;;;;;1.83;1.47;;;29.20;59.00;;;;;;6059671;23;20435;-83
2022/05/21 12:39:51;;;;;;;1.83;1.40;;;29.20;61.40;;;;;;6056279;23;20534;-83
2022/05/21 12:42:22;;;;;;;1.87;1.20;;;29.30;60.20;;;;;;6026982;23;20448;-83
2022/05/21 12:44:49;;;;;;;1.87;1.63;;;28.80;59.00;;;;;;6057024;23;20463;-83
2022/05/21 12:47:27;;;;;;;1.80;1.00;;;28.60;59.80;;;;;;6060424;23;20471;-84
2022/05/21 12:49:55;;;;;;;1.40;1.23;;;28.70;60.30;;;;;;6057490;23;20447;-84
2022/05/21 12:52:30;;;;;;;1.30;1.20;;;29.00;61.50;;;;;;6036741;23;20533;-84
2022/05/21 12:55:14;;;;;;;2.07;1.40;;;29.30;60.30;;;;;;6060227;23;21016;-84
2022/05/21 12:57:41;;;;;;;2.03;1.37;;;29.90;59.90;;;;;;6047211;23;20467;-82
2022/05/21 13:00:09;;;;;;;2.50;1.00;;;30.00;58.40;;;;;;6054696;23;20435;-83
2022/05/21 13:02:41;;;;;;;3.20;1.80;;;29.80;58.80;;;;;;6061680;23;20445;-84
2022/05/21 13:05:17;;;;;;;1.47;1.00;;;29.30;58.50;;;;;;6050248;23;20484;-83
2022/05/21 13:07:44;;;;;;;2.03;1.20;;;28.60;60.30;;;;;;6058724;23;20451;-81
2022/05/21 13:10:21;;;;;;;1.43;1.03;;;28.30;59.00;;;;;;6061068;23;20446;-83
2022/05/21 13:12:51;;;;;;;1.70;1.33;;;28.30;59.40;;;;;;6060273;23;20467;-81
2022/05/21 13:15:22;;;;;;;2.00;1.30;;;27.90;60.40;;;;;;6053224;23;20465;-83
2022/05/21 13:18:11;;;;;;;1.27;1.17;;;27.70;61.50;;;;;;6061112;23;20948;-81
2022/05/21 13:20:48;;;;;;;1.67;1.20;;;27.30;61.70;;;;;;6043332;23;20493;-81
2022/05/21 13:23:49;;;;;;;2.33;1.10;;;27.50;60.20;;;;;;6050301;23;20434;-81
2022/05/21 13:26:21;;;;;;;1.63;0.93;;;27.90;60.60;;;;;;6058339;23;20797;-81
2022/05/21 13:28:48;;;;;;;1.57;1.10;;;30.10;57.50;;;;;;6058056;23;20439;-84
2022/05/21 13:31:19;;;;;;;2.20;1.43;;;31.00;55.20;;;;;;6057293;23;20523;-82
2022/05/21 13:33:49;;;;;;;1.20;1.10;;;30.90;55.10;;;;;;6061376;23;20780;-82
2022/05/21 13:36:21;;;;;;;1.43;1.20;;;30.20;55.20;;;;;;6061420;23;21006;-82
2022/05/21 13:38:56;;;;;;;2.10;1.30;;;30.60;56.50;;;;;;6053395;23;20530;-82
2022/05/21 13:41:30;;;;;;;1.93;1.40;;;31.90;55.40;;;;;;6061636;23;20441;-82
2022/05/21 13:43:59;;;;;;;1.80;1.00;;;33.30;53.60;;;;;;6061047;23;20451;-82
2022/05/21 13:46:31;;;;;;;2.90;1.23;;;33.50;51.70;;;;;;6051400;23;20469;-82